Time;durP1;ratioP1;P1;durP2;ratioP2;P2;SDS_P1;SDS_P2;PMS_P1;PMS_P2;Temp;Humidity;BMP_temperature;BMP_pressure;BME280_temperature;BME280_humidity;BME280_pressure;Samples;Min_cycle;Max_cycle;Signal;HPM_P1;HPM_P2
2021/10/21 00:00:23;;;;;;;5.13;2.58;;;;;;;;;;5032386;28;20025;-51
2021/10/21 00:02:49;;;;;;;3.92;2.50;;;;;;;;;;5032829;28;20064;-51
2021/10/21 00:05:15;;;;;;;4.43;2.42;;;;;;;;;;5031794;28;20053;-50
2021/10/21 00:07:41;;;;;;;9.52;3.20;;;;;;;;;;5032797;28;20029;-50
2021/10/21 00:10:07;;;;;;;5.00;2.92;;;;;;;;;;5032696;28;20037;-51
2021/10/21 00:12:33;;;;;;;3.90;2.47;;;;;;;;;;5032463;28;20510;-51
2021/10/21 00:15:00;;;;;;;2.88;2.20;;;;;;;;;;5032106;28;20037;-50
2021/10/21 00:17:29;;;;;;;3.72;2.17;;;;;;;;;;5033132;28;20066;-50
2021/10/21 00:19:55;;;;;;;3.50;2.25;;;;;;;;;;5032488;28;20040;-50
2021/10/21 00:22:21;;;;;;;6.43;2.90;;;;;;;;;;5032622;28;20048;-50
2021/10/21 00:24:47;;;;;;;4.38;2.60;;;;;;;;;;5031881;28;20362;-50
2021/10/21 00:27:13;;;;;;;3.70;2.30;;;;;;;;;;5032780;28;20021;-50
2021/10/21 00:29:39;;;;;;;4.13;2.83;;;;;;;;;;5032228;28;20025;-51
2021/10/21 00:32:05;;;;;;;2.70;2.17;;;;;;;;;;5032449;28;20317;-50
2021/10/21 00:34:31;;;;;;;4.35;1.80;;;;;;;;;;5031379;28;20026;-51
2021/10/21 00:36:57;;;;;;;2.55;2.30;;;;;;;;;;5032380;28;20025;-50
2021/10/21 00:39:23;;;;;;;4.50;2.88;;;;;;;;;;5031997;28;20102;-51
2021/10/21 00:41:49;;;;;;;4.88;2.25;;;;;;;;;;5032619;28;20447;-50
2021/10/21 00:44:16;;;;;;;4.50;2.72;;;;;;;;;;5031939;28;20072;-51
2021/10/21 00:46:42;;;;;;;4.18;2.35;;;;;;;;;;5032135;28;20104;-50
2021/10/21 00:49:09;;;;;;;4.20;2.50;;;;;;;;;;5032469;28;20021;-50
2021/10/21 00:51:36;;;;;;;3.60;2.45;;;;;;;;;;5031982;28;20431;-50
2021/10/21 00:54:04;;;;;;;5.13;1.98;;;;;;;;;;5031479;28;20037;-50
2021/10/21 00:56:30;;;;;;;4.03;2.60;;;;;;;;;;5032488;28;20037;-50
2021/10/21 00:58:56;;;;;;;4.20;2.33;;;;;;;;;;5032628;28;20112;-50
2021/10/21 01:01:22;;;;;;;7.13;2.83;;;;;;;;;;5032188;28;20034;-51
2021/10/21 01:03:50;;;;;;;4.85;2.70;;;;;;;;;;5031231;28;20057;-50
2021/10/21 01:06:17;;;;;;;2.80;2.00;;;;;;;;;;5032391;28;20029;-50
2021/10/21 01:08:43;;;;;;;5.05;2.38;;;;;;;;;;5031845;28;20120;-50
2021/10/21 01:11:09;;;;;;;3.85;2.80;;;;;;;;;;5033814;28;20307;-50
2021/10/21 01:13:35;;;;;;;5.30;2.50;;;;;;;;;;5034966;28;20029;-50
2021/10/21 01:16:05;;;;;;;6.15;2.33;;;;;;;;;;5035658;28;20041;-51
2021/10/21 01:18:32;;;;;;;3.10;1.90;;;;;;;;;;5035659;28;20549;-51
2021/10/21 01:20:59;;;;;;;3.80;2.65;;;;;;;;;;5035578;28;20057;-50
2021/10/21 01:23:25;;;;;;;3.38;2.55;;;;;;;;;;5035371;28;20033;-50
2021/10/21 01:25:51;;;;;;;5.25;2.30;;;;;;;;;;5035272;28;20035;-50
2021/10/21 01:28:17;;;;;;;6.65;2.30;;;;;;;;;;5035602;28;20025;-51
2021/10/21 01:30:43;;;;;;;4.07;2.22;;;;;;;;;;5035274;28;20040;-50
2021/10/21 01:33:09;;;;;;;2.92;2.30;;;;;;;;;;5035145;28;20034;-50
2021/10/21 01:35:35;;;;;;;10.95;2.35;;;;;;;;;;5034194;28;20367;-51
2021/10/21 01:38:01;;;;;;;3.78;2.72;;;;;;;;;;5035228;28;20029;-50
2021/10/21 01:40:27;;;;;;;4.88;2.85;;;;;;;;;;5035670;28;20020;-50
2021/10/21 01:42:53;;;;;;;8.40;2.97;;;;;;;;;;5034746;28;20463;-51
2021/10/21 01:45:19;;;;;;;6.75;2.70;;;;;;;;;;5034464;28;20052;-51
2021/10/21 01:47:45;;;;;;;2.88;1.90;;;;;;;;;;5035037;28;20442;-50
2021/10/21 01:50:11;;;;;;;2.67;2.20;;;;;;;;;;5034909;28;20394;-50
2021/10/21 01:52:37;;;;;;;8.23;2.35;;;;;;;;;;5034874;28;20035;-50
2021/10/21 01:55:05;;;;;;;4.30;2.70;;;;;;;;;;5034308;28;20037;-50
2021/10/21 01:57:31;;;;;;;5.93;2.85;;;;;;;;;;5035128;28;20017;-50
2021/10/21 01:59:57;;;;;;;3.35;2.28;;;;;;;;;;5034854;28;20273;-50
2021/10/21 02:02:23;;;;;;;4.22;2.65;;;;;;;;;;5034757;28;20017;-50
2021/10/21 02:04:49;;;;;;;4.55;2.78;;;;;;;;;;5033464;28;20390;-50
2021/10/21 02:07:15;;;;;;;4.43;2.47;;;;;;;;;;5034845;28;20033;-50
2021/10/21 02:09:41;;;;;;;8.85;2.90;;;;;;;;;;5034743;28;20036;-50
2021/10/21 02:12:06;;;;;;;6.75;2.83;;;;;;;;;;5034684;28;20391;-50
2021/10/21 02:14:33;;;;;;;3.05;2.15;;;;;;;;;;5033623;28;20052;-50
2021/10/21 02:17:00;;;;;;;6.40;3.13;;;;;;;;;;5034435;28;20074;-50
2021/10/21 02:19:26;;;;;;;9.50;3.10;;;;;;;;;;5033992;28;20021;-50
2021/10/21 02:21:52;;;;;;;4.25;2.47;;;;;;;;;;5033851;28;20091;-50
2021/10/21 02:24:18;;;;;;;5.55;3.60;;;;;;;;;;5033611;28;20478;-51
2021/10/21 02:26:44;;;;;;;7.38;2.53;;;;;;;;;;5034259;28;20022;-51
2021/10/21 02:29:10;;;;;;;5.28;3.38;;;;;;;;;;5034196;28;20037;-50
2021/10/21 02:31:36;;;;;;;3.92;2.60;;;;;;;;;;5033979;28;20036;-50
2021/10/21 02:34:02;;;;;;;6.10;2.97;;;;;;;;;;5033069;28;20029;-50
2021/10/21 02:36:28;;;;;;;4.15;2.58;;;;;;;;;;5034433;28;20355;-50
2021/10/21 02:38:54;;;;;;;6.28;3.42;;;;;;;;;;5033851;28;20079;-50
2021/10/21 02:41:20;;;;;;;5.38;3.35;;;;;;;;;;5034339;28;20022;-50
2021/10/21 02:43:46;;;;;;;4.72;2.72;;;;;;;;;;5033181;28;20038;-50
2021/10/21 02:46:13;;;;;;;6.00;3.38;;;;;;;;;;5034000;28;20025;-50
2021/10/21 02:48:39;;;;;;;8.90;2.70;;;;;;;;;;5033655;28;20040;-50
2021/10/21 02:51:05;;;;;;;4.93;2.88;;;;;;;;;;5033788;28;20395;-50
2021/10/21 02:53:31;;;;;;;7.38;3.08;;;;;;;;;;5033310;28;20025;-50
2021/10/21 02:55:57;;;;;;;3.75;1.85;;;;;;;;;;5043294;28;20017;-50
2021/10/21 02:58:23;;;;;;;5.35;3.05;;;;;;;;;;5053682;28;20367;-50
2021/10/21 03:00:49;;;;;;;4.88;2.83;;;;;;;;;;5053277;28;20025;-50
2021/10/21 03:03:15;;;;;;;4.88;2.78;;;;;;;;;;5045504;28;20471;-50
2021/10/21 03:05:41;;;;;;;3.65;1.52;;;;;;;;;;5044871;28;20025;-51
2021/10/21 03:08:07;;;;;;;6.50;3.70;;;;;;;;;;5053645;28;20024;-50
2021/10/21 03:10:33;;;;;;;6.75;4.10;;;;;;;;;;5053357;28;20451;-50
2021/10/21 03:12:59;;;;;;;3.60;2.63;;;;;;;;;;5037663;28;20135;-50
2021/10/21 03:15:26;;;;;;;8.43;2.47;;;;;;;;;;5032711;28;20535;-50
2021/10/21 03:17:52;;;;;;;8.60;3.72;;;;;;;;;;5033293;28;20362;-50
2021/10/21 03:20:18;;;;;;;7.50;3.28;;;;;;;;;;5033495;28;20447;-50
2021/10/21 03:22:44;;;;;;;4.82;3.28;;;;;;;;;;5033320;28;20025;-50
2021/10/21 03:25:11;;;;;;;4.13;2.35;;;;;;;;;;5032241;28;20064;-50
2021/10/21 03:27:37;;;;;;;4.55;2.50;;;;;;;;;;5033014;28;20447;-50
2021/10/21 03:30:04;;;;;;;9.10;3.83;;;;;;;;;;5032997;28;20431;-50
2021/10/21 03:32:30;;;;;;;7.10;2.65;;;;;;;;;;5032996;28;20025;-50
2021/10/21 03:34:56;;;;;;;4.60;3.13;;;;;;;;;;5031964;28;20030;-50
2021/10/21 03:37:22;;;;;;;5.70;3.30;;;;;;;;;;5032992;28;20030;-50
2021/10/21 03:39:50;;;;;;;6.63;3.67;;;;;;;;;;5032997;28;20112;-50
2021/10/21 03:42:20;;;;;;;4.93;2.95;;;;;;;;;;5032500;28;20026;-50
2021/10/21 03:44:46;;;;;;;6.32;3.92;;;;;;;;;;5032593;28;20033;-50
2021/10/21 03:47:12;;;;;;;7.30;4.03;;;;;;;;;;5032997;28;20029;-50
2021/10/21 03:49:38;;;;;;;3.10;2.47;;;;;;;;;;5033138;28;20048;-50
2021/10/21 03:52:04;;;;;;;6.50;3.30;;;;;;;;;;5032496;28;20435;-50
2021/10/21 03:54:31;;;;;;;2.05;1.85;;;;;;;;;;5031828;28;20034;-50
2021/10/21 03:56:57;;;;;;;5.30;3.00;;;;;;;;;;5033402;28;20116;-50
2021/10/21 03:59:23;;;;;;;5.30;3.30;;;;;;;;;;5033109;28;20030;-50
2021/10/21 04:01:49;;;;;;;6.30;3.70;;;;;;;;;;5032545;28;20040;-50
2021/10/21 04:04:15;;;;;;;8.23;3.58;;;;;;;;;;5031618;28;20111;-50
2021/10/21 04:06:41;;;;;;;8.00;2.95;;;;;;;;;;5032928;28;20022;-51
2021/10/21 04:09:08;;;;;;;4.22;2.30;;;;;;;;;;5032735;28;20124;-50
2021/10/21 04:11:34;;;;;;;5.18;2.58;;;;;;;;;;5032393;28;20503;-50
2021/10/21 04:14:00;;;;;;;4.35;2.50;;;;;;;;;;5031767;28;20410;-50
2021/10/21 04:16:26;;;;;;;6.03;3.20;;;;;;;;;;5032616;28;20029;-50
2021/10/21 04:18:52;;;;;;;2.97;1.88;;;;;;;;;;5032514;28;20029;-50
2021/10/21 04:21:19;;;;;;;5.10;2.55;;;;;;;;;;5032540;28;20057;-50
2021/10/21 04:23:45;;;;;;;4.97;2.45;;;;;;;;;;5031745;28;20033;-50
2021/10/21 04:26:11;;;;;;;5.07;2.33;;;;;;;;;;5030841;28;20414;-50
2021/10/21 04:28:37;;;;;;;1.55;1.30;;;;;;;;;;5032667;28;20060;-50
2021/10/21 04:31:04;;;;;;;4.30;2.00;;;;;;;;;;5031987;28;20045;-50
2021/10/21 04:33:30;;;;;;;2.10;1.90;;;;;;;;;;5032004;28;20105;-50
2021/10/21 04:35:56;;;;;;;6.68;1.90;;;;;;;;;;5032736;28;20021;-50
2021/10/21 04:38:22;;;;;;;2.95;1.45;;;;;;;;;;5032680;28;20034;-50
2021/10/21 04:40:48;;;;;;;4.00;1.60;;;;;;;;;;5032084;28;20459;-50
2021/10/21 04:43:14;;;;;;;2.45;1.00;;;;;;;;;;5032552;28;20037;-50
2021/10/21 04:45:40;;;;;;;0.80;0.80;;;;;;;;;;5033788;28;20034;-51
2021/10/21 04:48:06;;;;;;;2.13;1.02;;;;;;;;;;5036015;28;20026;-50
2021/10/21 04:50:32;;;;;;;1.95;1.05;;;;;;;;;;5035943;28;20033;-50
2021/10/21 04:52:59;;;;;;;5.50;1.15;;;;;;;;;;5035859;28;20028;-50
2021/10/21 04:55:25;;;;;;;0.93;0.85;;;;;;;;;;5035344;28;20029;-50
2021/10/21 04:57:52;;;;;;;0.98;0.88;;;;;;;;;;5036130;28;20021;-50
2021/10/21 05:00:18;;;;;;;0.77;0.77;;;;;;;;;;5036000;28;20079;-50
2021/10/21 05:02:45;;;;;;;0.43;0.43;;;;;;;;;;5035408;28;20028;-50
2021/10/21 05:05:11;;;;;;;1.17;0.50;;;;;;;;;;5035284;28;20483;-50
2021/10/21 05:07:37;;;;;;;0.57;0.50;;;;;;;;;;5035536;28;20028;-50
2021/10/21 05:10:04;;;;;;;0.60;0.60;;;;;;;;;;5036038;28;20031;-50
2021/10/21 05:12:30;;;;;;;0.38;0.38;;;;;;;;;;5035329;28;20021;-50
2021/10/21 05:14:56;;;;;;;0.50;0.50;;;;;;;;;;5035255;28;20068;-50
2021/10/21 05:17:22;;;;;;;0.30;0.30;;;;;;;;;;5035664;28;20087;-50
2021/10/21 05:19:48;;;;;;;0.65;0.65;;;;;;;;;;5035879;28;20022;-50
2021/10/21 05:22:14;;;;;;;2.08;0.65;;;;;;;;;;5035671;28;20021;-50
2021/10/21 05:24:40;;;;;;;0.32;0.32;;;;;;;;;;5034541;28;20038;-50
2021/10/21 05:27:08;;;;;;;1.88;0.52;;;;;;;;;;5035284;28;20462;-50
2021/10/21 05:29:34;;;;;;;0.20;0.20;;;;;;;;;;5035404;28;20036;-51
2021/10/21 05:32:05;;;;;;;2.08;0.85;;;;;;;;;;5035298;28;20030;-51
2021/10/21 05:34:31;;;;;;;0.40;0.40;;;;;;;;;;5034850;28;20345;-50
2021/10/21 05:36:57;;;;;;;0.30;0.30;;;;;;;;;;5035368;28;20071;-50
2021/10/21 05:39:23;;;;;;;0.45;0.30;;;;;;;;;;5034891;28;20112;-50
2021/10/21 05:41:49;;;;;;;0.30;0.30;;;;;;;;;;5034973;28;20156;-50
2021/10/21 05:44:15;;;;;;;0.63;0.60;;;;;;;;;;5034479;28;20363;-50
2021/10/21 05:46:41;;;;;;;2.20;0.60;;;;;;;;;;5034973;28;20510;-50
2021/10/21 05:49:07;;;;;;;2.05;0.70;;;;;;;;;;5035309;28;20028;-50
2021/10/21 05:51:33;;;;;;;0.30;0.30;;;;;;;;;;5034916;28;20116;-51
2021/10/21 05:53:59;;;;;;;8.27;0.93;;;;;;;;;;5033909;28;20026;-50
2021/10/21 05:56:25;;;;;;;0.65;0.40;;;;;;;;;;5034396;28;20080;-50
2021/10/21 05:58:51;;;;;;;2.28;0.73;;;;;;;;;;5034877;28;20032;-50
2021/10/21 06:01:17;;;;;;;3.15;0.40;;;;;;;;;;5035032;28;20505;-50
2021/10/21 06:03:44;;;;;;;0.80;0.40;;;;;;;;;;5033529;28;20033;-52
2021/10/21 06:06:09;;;;;;;0.60;0.60;;;;;;;;;;5034983;28;20404;-51
2021/10/21 06:08:36;;;;;;;0.35;0.35;;;;;;;;;;5034851;28;20181;-50
2021/10/21 06:11:03;;;;;;;5.53;0.50;;;;;;;;;;5034961;28;20028;-50
2021/10/21 06:13:29;;;;;;;8.30;0.77;;;;;;;;;;5033391;28;20030;-50
2021/10/21 06:15:55;;;;;;;4.20;0.70;;;;;;;;;;5034478;28;20446;-50
2021/10/21 06:18:21;;;;;;;2.70;0.55;;;;;;;;;;5034808;28;20049;-51
2021/10/21 06:20:47;;;;;;;2.00;0.90;;;;;;;;;;5034603;28;20498;-50
2021/10/21 06:23:13;;;;;;;0.60;0.60;;;;;;;;;;5034433;28;20034;-51
2021/10/21 06:25:39;;;;;;;1.00;0.50;;;;;;;;;;5033536;28;20031;-51
2021/10/21 06:28:05;;;;;;;1.20;0.50;;;;;;;;;;5033727;28;20025;-50
2021/10/21 06:30:31;;;;;;;4.55;0.65;;;;;;;;;;5034356;28;20033;-51
2021/10/21 06:32:57;;;;;;;0.88;0.50;;;;;;;;;;5034086;28;20025;-51
2021/10/21 06:35:24;;;;;;;0.85;0.85;;;;;;;;;;5033308;28;20057;-50
2021/10/21 06:37:50;;;;;;;4.47;1.20;;;;;;;;;;5034084;28;20025;-51
2021/10/21 06:40:16;;;;;;;8.10;0.88;;;;;;;;;;5034149;28;20054;-50
2021/10/21 06:42:43;;;;;;;4.63;0.82;;;;;;;;;;5033454;28;20026;-50
2021/10/21 06:45:11;;;;;;;2.85;0.85;;;;;;;;;;5033605;28;20108;-51
2021/10/21 06:47:41;;;;;;;0.40;0.35;;;;;;;;;;5033886;28;20021;-51
2021/10/21 06:50:09;;;;;;;4.13;0.83;;;;;;;;;;5033926;28;20030;-50
2021/10/21 06:52:35;;;;;;;0.38;0.38;;;;;;;;;;5033817;28;20280;-50
2021/10/21 06:55:01;;;;;;;2.45;0.90;;;;;;;;;;5033098;28;20359;-51
2021/10/21 06:57:27;;;;;;;4.13;0.50;;;;;;;;;;5034177;28;20025;-50
2021/10/21 06:59:53;;;;;;;1.48;0.45;;;;;;;;;;5033806;28;20052;-51
2021/10/21 07:02:19;;;;;;;0.43;0.43;;;;;;;;;;5033653;28;20105;-50
2021/10/21 07:04:45;;;;;;;0.50;0.50;;;;;;;;;;5032869;28;20115;-50
2021/10/21 07:07:11;;;;;;;3.08;0.70;;;;;;;;;;5033288;28;20076;-50
2021/10/21 07:09:37;;;;;;;1.45;0.63;;;;;;;;;;5033853;28;20056;-50
2021/10/21 07:12:03;;;;;;;4.43;0.90;;;;;;;;;;5033347;28;20419;-50
2021/10/21 07:14:30;;;;;;;6.07;0.52;;;;;;;;;;5032754;28;20025;-51
2021/10/21 07:16:56;;;;;;;2.65;0.80;;;;;;;;;;5033625;28;20025;-50
2021/10/21 07:19:22;;;;;;;0.75;0.60;;;;;;;;;;5033115;28;20033;-51
2021/10/21 07:21:48;;;;;;;0.50;0.50;;;;;;;;;;5033436;28;20048;-50
2021/10/21 07:24:14;;;;;;;6.03;0.50;;;;;;;;;;5032316;28;20439;-50
2021/10/21 07:26:41;;;;;;;0.52;0.50;;;;;;;;;;5033477;28;20045;-51
2021/10/21 07:29:07;;;;;;;0.98;0.47;;;;;;;;;;5033317;28;20029;-50
2021/10/21 07:31:34;;;;;;;0.20;0.20;;;;;;;;;;5033195;28;20029;-50
2021/10/21 07:34:00;;;;;;;4.30;0.50;;;;;;;;;;5032302;28;20026;-50
2021/10/21 07:36:26;;;;;;;0.35;0.35;;;;;;;;;;5033380;28;20022;-50
2021/10/21 07:38:52;;;;;;;15.98;1.35;;;;;;;;;;5032939;28;20110;-50
2021/10/21 07:41:19;;;;;;;3.17;1.20;;;;;;;;;;5033125;28;20099;-50
2021/10/21 07:43:45;;;;;;;0.52;0.43;;;;;;;;;;5032030;28;20033;-50
2021/10/21 07:46:11;;;;;;;2.58;1.08;;;;;;;;;;5033463;28;20021;-51
2021/10/21 07:48:37;;;;;;;2.75;0.70;;;;;;;;;;5032846;28;20459;-51
2021/10/21 07:51:03;;;;;;;3.10;0.88;;;;;;;;;;5032960;28;20024;-50
2021/10/21 07:53:31;;;;;;;3.72;0.73;;;;;;;;;;5032105;28;20112;-50
2021/10/21 07:55:57;;;;;;;0.43;0.43;;;;;;;;;;5032920;28;20037;-50
2021/10/21 07:58:23;;;;;;;1.23;1.00;;;;;;;;;;5032958;28;20068;-51
2021/10/21 08:00:50;;;;;;;2.78;0.75;;;;;;;;;;5032910;28;20056;-51
2021/10/21 08:03:18;;;;;;;4.07;0.45;;;;;;;;;;5032900;28;20087;-50
2021/10/21 08:05:44;;;;;;;2.65;0.90;;;;;;;;;;5032273;28;20033;-50
2021/10/21 08:08:10;;;;;;;3.03;0.50;;;;;;;;;;5032579;28;20526;-50
2021/10/21 08:10:36;;;;;;;2.10;0.85;;;;;;;;;;5032839;28;20029;-50
2021/10/21 08:13:02;;;;;;;5.07;0.98;;;;;;;;;;5032571;28;20044;-50
2021/10/21 08:15:28;;;;;;;2.13;1.00;;;;;;;;;;5032212;28;20026;-51
2021/10/21 08:17:56;;;;;;;2.35;0.57;;;;;;;;;;5032947;28;20024;-50
2021/10/21 08:20:26;;;;;;;0.30;0.30;;;;;;;;;;5034578;28;20159;-50
2021/10/21 08:22:52;;;;;;;1.30;0.63;;;;;;;;;;5036924;28;20353;-50
2021/10/21 08:25:18;;;;;;;6.25;0.77;;;;;;;;;;5035873;28;20474;-50
2021/10/21 08:27:45;;;;;;;1.75;0.60;;;;;;;;;;5036934;28;20112;-50
2021/10/21 08:30:12;;;;;;;3.03;0.65;;;;;;;;;;5036474;28;20112;-50
2021/10/21 08:32:38;;;;;;;0.40;0.40;;;;;;;;;;5036731;28;20040;-50
2021/10/21 08:35:05;;;;;;;2.35;0.75;;;;;;;;;;5035472;28;20028;-50
2021/10/21 08:37:31;;;;;;;4.15;0.75;;;;;;;;;;5036696;28;20033;-50
2021/10/21 08:39:57;;;;;;;1.65;0.60;;;;;;;;;;5036592;28;20028;-51
2021/10/21 08:42:23;;;;;;;0.32;0.32;;;;;;;;;;5036320;28;20025;-50
2021/10/21 08:44:49;;;;;;;2.40;0.43;;;;;;;;;;5035376;28;20358;-50
2021/10/21 08:47:18;;;;;;;0.70;0.40;;;;;;;;;;5036399;28;20017;-51
2021/10/21 08:49:46;;;;;;;6.88;0.85;;;;;;;;;;5036092;28;20025;-50
2021/10/21 08:52:14;;;;;;;3.00;0.75;;;;;;;;;;5035989;28;20036;-50
2021/10/21 08:54:40;;;;;;;0.50;0.50;;;;;;;;;;5035598;28;20091;-50
2021/10/21 08:57:10;;;;;;;1.05;0.57;;;;;;;;;;5036495;28;20060;-50
2021/10/21 08:59:36;;;;;;;0.63;0.32;;;;;;;;;;5036336;28;20021;-50
2021/10/21 09:02:09;;;;;;;2.47;0.65;;;;;;;;;;5035730;28;20064;-50
2021/10/21 09:09:34;;;;;;;7.37;1.23;;;;;;;;;;5035942;28;20467;-50
2021/10/21 09:12:04;;;;;;;3.00;0.68;;;;;;;;;;5035936;28;20040;-50
2021/10/21 09:14:34;;;;;;;3.83;0.55;;;;;;;;;;5034741;28;20530;-50
2021/10/21 09:17:01;;;;;;;0.90;0.75;;;;;;;;;;5036281;28;20041;-52
2021/10/21 09:19:28;;;;;;;0.90;0.50;;;;;;;;;;5035188;28;20154;-50
2021/10/21 09:21:54;;;;;;;1.10;0.50;;;;;;;;;;5035955;28;20092;-51
2021/10/21 09:24:32;;;;;;;2.42;0.57;;;;;;;;;;5034536;28;20370;-50
2021/10/21 09:27:03;;;;;;;0.95;0.55;;;;;;;;;;5035676;28;20017;-50
2021/10/21 09:29:29;;;;;;;0.57;0.55;;;;;;;;;;5034830;28;20032;-51
2021/10/21 09:32:07;;;;;;;1.85;0.43;;;;;;;;;;5034564;28;20068;-50
2021/10/21 09:34:43;;;;;;;1.35;0.38;;;;;;;;;;5034146;28;20474;-51
2021/10/21 09:37:11;;;;;;;1.02;0.40;;;;;;;;;;5035685;28;20355;-50
2021/10/21 09:39:41;;;;;;;6.13;0.88;;;;;;;;;;5035388;28;20048;-50
2021/10/21 09:42:08;;;;;;;12.55;1.02;;;;;;;;;;5035670;28;20021;-51
2021/10/21 09:44:33;;;;;;;2.58;1.00;;;;;;;;;;5034116;28;20041;-51
2021/10/21 09:46:59;;;;;;;1.25;0.50;;;;;;;;;;5034772;28;20018;-51
2021/10/21 09:49:32;;;;;;;0.50;0.50;;;;;;;;;;5034936;28;20355;-50
2021/10/21 09:51:58;;;;;;;0.55;0.55;;;;;;;;;;5035432;28;20039;-51
2021/10/21 09:54:24;;;;;;;1.08;0.52;;;;;;;;;;5033859;28;20057;-50
2021/10/21 09:56:58;;;;;;;0.30;0.30;;;;;;;;;;5035267;28;20018;-50
2021/10/21 09:59:25;;;;;;;0.30;0.30;;;;;;;;;;5034894;28;20039;-50
2021/10/21 10:01:53;;;;;;;0.40;0.40;;;;;;;;;;5034976;28;20108;-51
2021/10/21 10:04:19;;;;;;;2.42;0.57;;;;;;;;;;5034119;28;20087;-50
2021/10/21 10:06:45;;;;;;;0.17;0.17;;;;;;;;;;5034573;28;20474;-50
2021/10/21 10:09:11;;;;;;;0.28;0.28;;;;;;;;;;5034882;28;20029;-50
2021/10/21 10:11:38;;;;;;;0.35;0.35;;;;;;;;;;5034567;28;20048;-51
2021/10/21 10:14:04;;;;;;;0.50;0.43;;;;;;;;;;5034129;28;20026;-50
2021/10/21 10:16:32;;;;;;;1.25;0.63;;;;;;;;;;5034763;28;20053;-51
2021/10/21 10:18:59;;;;;;;0.75;0.52;;;;;;;;;;5034929;28;20033;-51
2021/10/21 10:21:31;;;;;;;0.30;0.30;;;;;;;;;;5033957;28;20017;-50
2021/10/21 10:23:59;;;;;;;0.90;0.30;;;;;;;;;;5033473;28;20469;-50
2021/10/21 10:26:48;;;;;;;0.20;0.20;;;;;;;;;;5034464;28;20025;-50
2021/10/21 10:29:16;;;;;;;2.92;0.50;;;;;;;;;;5034424;28;20021;-50
2021/10/21 10:31:46;;;;;;;2.03;0.45;;;;;;;;;;5033764;28;20522;-51
2021/10/21 10:34:12;;;;;;;;;;;;;;;;;;5034023;28;20029;-51
2021/10/21 10:36:38;;;;;;;0.55;0.40;;;;;;;;;;5033767;28;19905;-50
2021/10/21 10:39:06;;;;;;;0.35;0.30;;;;;;;;;;5033319;28;20063;-51
2021/10/21 10:41:58;;;;;;;3.72;0.50;;;;;;;;;;5034287;28;20022;-50
2021/10/21 10:44:36;;;;;;;1.25;0.50;;;;;;;;;;5031864;28;20053;-50
2021/10/21 10:47:03;;;;;;;6.45;0.50;;;;;;;;;;5033993;28;20352;-50
2021/10/21 10:49:49;;;;;;;1.67;0.55;;;;;;;;;;5034181;28;20283;-51
2021/10/21 10:52:16;;;;;;;0.85;0.30;;;;;;;;;;5033991;28;20029;-50
2021/10/21 10:54:51;;;;;;;1.08;0.47;;;;;;;;;;5033049;28;20041;-51
2021/10/21 10:57:26;;;;;;;0.93;0.40;;;;;;;;;;5034199;28;20029;-50
2021/10/21 10:59:52;;;;;;;0.43;0.35;;;;;;;;;;5033540;28;20439;-51
2021/10/21 11:02:25;;;;;;;0.85;0.50;;;;;;;;;;5033829;28;20034;-51
2021/10/21 11:04:54;;;;;;;1.75;0.73;;;;;;;;;;5032843;28;20042;-51
2021/10/21 11:07:22;;;;;;;0.40;0.40;;;;;;;;;;5033608;28;20104;-51
2021/10/21 11:09:48;;;;;;;1.00;0.45;;;;;;;;;;5033829;28;20029;-51
2021/10/21 11:12:20;;;;;;;1.67;0.55;;;;;;;;;;5033791;28;20032;-50
2021/10/21 11:14:53;;;;;;;1.55;1.00;;;;;;;;;;5032469;28;20026;-51
2021/10/21 11:17:38;;;;;;;3.85;0.63;;;;;;;;;;5033616;28;20036;-50
2021/10/21 11:20:04;;;;;;;1.00;0.40;;;;;;;;;;5033171;28;20079;-50
2021/10/21 11:22:35;;;;;;;1.65;1.13;;;;;;;;;;5033677;28;20025;-50
2021/10/21 11:25:03;;;;;;;0.85;0.60;;;;;;;;;;5032889;28;20163;-51
2021/10/21 11:27:32;;;;;;;1.27;0.60;;;;;;;;;;5033066;28;20409;-51
2021/10/21 11:30:03;;;;;;;0.77;0.60;;;;;;;;;;5033220;28;20124;-50
2021/10/21 11:32:31;;;;;;;0.80;0.50;;;;;;;;;;5033179;28;20021;-50
2021/10/21 11:34:57;;;;;;;4.10;0.52;;;;;;;;;;5032346;28;20043;-50
2021/10/21 11:37:52;;;;;;;0.45;0.45;;;;;;;;;;5033110;28;20350;-50
2021/10/21 11:40:29;;;;;;;1.85;0.40;;;;;;;;;;5028078;28;20112;-50
2021/10/21 11:42:59;;;;;;;0.43;0.30;;;;;;;;;;5033008;28;20036;-50
2021/10/21 11:45:26;;;;;;;1.60;0.30;;;;;;;;;;5032302;28;20033;-50
2021/10/21 11:47:56;;;;;;;0.45;0.45;;;;;;;;;;5033491;28;20040;-51
2021/10/21 11:50:33;;;;;;;0.30;0.30;;;;;;;;;;5032911;28;20032;-51
2021/10/21 11:52:59;;;;;;;0.30;0.30;;;;;;;;;;5032757;28;20424;-51
2021/10/21 11:55:29;;;;;;;0.30;0.30;;;;;;;;;;5031402;28;20510;-51
2021/10/21 11:57:56;;;;;;;0.40;0.40;;;;;;;;;;5033351;28;20109;-50
2021/10/21 12:00:26;;;;;;;0.20;0.20;;;;;;;;;;5032592;28;20044;-51
2021/10/21 12:02:56;;;;;;;0.38;0.35;;;;;;;;;;5032524;28;20029;-51
2021/10/21 12:05:28;;;;;;;1.33;0.55;;;;;;;;;;5032520;28;20588;-51
2021/10/21 12:07:54;;;;;;;0.93;0.40;;;;;;;;;;5032921;28;20358;-50
2021/10/21 12:10:24;;;;;;;1.02;0.60;;;;;;;;;;5032800;28;20026;-51
2021/10/21 12:12:50;;;;;;;0.60;0.40;;;;;;;;;;5032707;28;20029;-50
2021/10/21 12:15:18;;;;;;;3.05;0.50;;;;;;;;;;5032331;28;20436;-50
2021/10/21 12:17:44;;;;;;;0.82;0.52;;;;;;;;;;5032582;28;20037;-51
2021/10/21 12:20:12;;;;;;;0.40;0.40;;;;;;;;;;5032751;28;20060;-50
2021/10/21 12:22:38;;;;;;;1.00;0.40;;;;;;;;;;5032940;28;20109;-51
2021/10/21 12:25:06;;;;;;;0.30;0.30;;;;;;;;;;5032216;28;20037;-51
2021/10/21 12:27:32;;;;;;;0.52;0.50;;;;;;;;;;5032257;28;20138;-51
2021/10/21 12:30:04;;;;;;;0.50;0.47;;;;;;;;;;5032511;28;20125;-51
2021/10/21 12:32:30;;;;;;;0.45;0.45;;;;;;;;;;5032405;28;20025;-50
2021/10/21 12:35:04;;;;;;;0.43;0.43;;;;;;;;;;5031985;28;20063;-51
2021/10/21 12:37:38;;;;;;;1.30;0.47;;;;;;;;;;5032388;28;20029;-51
2021/10/21 12:40:16;;;;;;;0.38;0.38;;;;;;;;;;5032453;28;20471;-51
2021/10/21 12:42:42;;;;;;;5.72;0.40;;;;;;;;;;5032252;28;20045;-51
2021/10/21 12:45:09;;;;;;;0.30;0.30;;;;;;;;;;5032041;28;20037;-51
2021/10/21 12:47:37;;;;;;;0.98;0.63;;;;;;;;;;5032255;28;20032;-51
2021/10/21 12:50:03;;;;;;;0.30;0.30;;;;;;;;;;5032616;28;20033;-51
2021/10/21 12:52:31;;;;;;;0.40;0.40;;;;;;;;;;5031998;28;20026;-51
2021/10/21 12:55:09;;;;;;;2.65;0.57;;;;;;;;;;5031397;28;20075;-50
2021/10/21 12:57:53;;;;;;;1.50;0.47;;;;;;;;;;5032696;28;20114;-51
2021/10/21 13:00:25;;;;;;;1.00;0.55;;;;;;;;;;5032463;28;20052;-51
2021/10/21 13:03:01;;;;;;;0.50;0.50;;;;;;;;;;5031823;28;20037;-51
2021/10/21 13:05:27;;;;;;;0.80;0.60;;;;;;;;;;5032159;28;20037;-51
2021/10/21 13:07:53;;;;;;;1.00;0.40;;;;;;;;;;5035862;28;20024;-51
2021/10/21 13:10:19;;;;;;;0.75;0.43;;;;;;;;;;5035996;28;20414;-52
2021/10/21 13:12:45;;;;;;;7.22;0.60;;;;;;;;;;5035817;28;20017;-51
2021/10/21 13:15:12;;;;;;;0.30;0.30;;;;;;;;;;5034993;28;20033;-51
2021/10/21 13:17:38;;;;;;;2.80;0.73;;;;;;;;;;5035388;28;20028;-51
2021/10/21 13:20:04;;;;;;;0.88;0.60;;;;;;;;;;5035604;28;20029;-51
2021/10/21 13:22:30;;;;;;;1.42;1.02;;;;;;;;;;5035358;28;20060;-51
2021/10/21 13:24:56;;;;;;;1.00;0.50;;;;;;;;;;5034697;28;20069;-51
2021/10/21 13:27:22;;;;;;;1.25;0.50;;;;;;;;;;5035438;28;20014;-51
2021/10/21 13:29:48;;;;;;;0.85;0.63;;;;;;;;;;5034804;28;20037;-50
2021/10/21 13:32:14;;;;;;;0.50;0.50;;;;;;;;;;5035413;28;20343;-51
2021/10/21 13:34:40;;;;;;;2.58;0.60;;;;;;;;;;5034466;28;20455;-51
2021/10/21 13:37:08;;;;;;;0.45;0.35;;;;;;;;;;5035006;28;20087;-50
2021/10/21 13:39:39;;;;;;;2.10;0.70;;;;;;;;;;5035712;28;20026;-50
2021/10/21 13:42:06;;;;;;;2.08;0.60;;;;;;;;;;5034993;28;20104;-50
2021/10/21 13:44:32;;;;;;;0.47;0.47;;;;;;;;;;5034742;28;20088;-51
2021/10/21 13:47:01;;;;;;;4.43;0.65;;;;;;;;;;5034649;28;20021;-50
2021/10/21 13:49:27;;;;;;;2.80;0.70;;;;;;;;;;5035082;28;20475;-50
2021/10/21 13:51:52;;;;;;;0.55;0.47;;;;;;;;;;5035071;28;20029;-51
2021/10/21 13:54:18;;;;;;;0.40;0.40;;;;;;;;;;5034372;28;20068;-51
2021/10/21 13:56:45;;;;;;;5.10;1.38;;;;;;;;;;5035149;28;20017;-51
2021/10/21 13:59:11;;;;;;;2.08;0.60;;;;;;;;;;5034656;28;20056;-51
2021/10/21 14:01:37;;;;;;;1.27;0.50;;;;;;;;;;5035290;28;20022;-50
2021/10/21 14:04:03;;;;;;;6.03;0.77;;;;;;;;;;5034471;28;20033;-51
2021/10/21 14:06:32;;;;;;;7.43;0.80;;;;;;;;;;5035247;28;20105;-50
2021/10/21 14:09:01;;;;;;;4.85;0.43;;;;;;;;;;5034490;28;20032;-51
2021/10/21 14:11:28;;;;;;;1.00;0.70;;;;;;;;;;5034624;28;20026;-51
2021/10/21 14:13:54;;;;;;;0.50;0.50;;;;;;;;;;5033435;28;20037;-51
2021/10/21 14:16:20;;;;;;;0.38;0.38;;;;;;;;;;5034731;28;20032;-51
2021/10/21 14:18:47;;;;;;;0.85;0.35;;;;;;;;;;5033844;28;20502;-51
2021/10/21 14:21:14;;;;;;;1.13;0.40;;;;;;;;;;5034366;28;20060;-51
2021/10/21 14:23:40;;;;;;;4.25;1.02;;;;;;;;;;5038755;28;20033;-51
2021/10/21 14:26:06;;;;;;;0.50;0.50;;;;;;;;;;5064038;28;20390;-51
2021/10/21 14:28:32;;;;;;;1.58;0.68;;;;;;;;;;5057895;28;20036;-51
2021/10/21 14:30:58;;;;;;;1.90;0.55;;;;;;;;;;5034461;28;20083;-50
2021/10/21 14:33:24;;;;;;;2.58;0.98;;;;;;;;;;5033384;28;20026;-51
2021/10/21 14:35:50;;;;;;;1.75;0.60;;;;;;;;;;5032278;28;20079;-51
2021/10/21 14:38:16;;;;;;;2.25;0.80;;;;;;;;;;5034274;28;20057;-51
2021/10/21 14:40:42;;;;;;;0.50;0.50;;;;;;;;;;5033797;28;20038;-51
2021/10/21 14:43:08;;;;;;;4.32;1.17;;;;;;;;;;5033652;28;20037;-50
2021/10/21 14:45:38;;;;;;;1.65;1.00;;;;;;;;;;5033382;28;20021;-51
2021/10/21 14:48:05;;;;;;;0.60;0.60;;;;;;;;;;5034169;28;20113;-51